Time;durP1;ratioP1;P1;durP2;ratioP2;P2;SDS_P1;SDS_P2;PMS_P1;PMS_P2;Temp;Humidity;BMP_temperature;BMP_pressure;BME280_temperature;BME280_humidity;BME280_pressure;Samples;Min_cycle;Max_cycle;Signal;HPM_P1;HPM_P2
2022/04/03 00:00:58;;;;;;;4.50;4.50;;;;;;;1.84;71.87;101641.66;5116563;28;20643;-68
2022/04/03 00:03:25;;;;;;;4.90;4.60;;;;;;;1.87;71.71;101639.97;5116541;28;20697;-69
2022/04/03 00:05:51;;;;;;;4.47;4.47;;;;;;;1.84;72.16;101645.09;5116546;28;20181;-69
2022/04/03 00:08:18;;;;;;;5.00;4.80;;;;;;;1.81;72.39;101641.63;5116513;28;20663;-69
2022/04/03 00:10:46;;;;;;;6.03;5.43;;;;;;;1.71;72.66;101647.53;5116984;28;20212;-69
2022/04/03 00:13:12;;;;;;;5.17;5.07;;;;;;;1.65;72.69;101632.88;5116453;28;20597;-69
2022/04/03 00:15:41;;;;;;;5.20;5.10;;;;;;;1.61;73.00;101641.44;5116570;28;20614;-69
2022/04/03 00:18:09;;;;;;;5.67;5.47;;;;;;;1.61;73.32;101647.47;5116531;28;20186;-69
2022/04/03 00:20:36;;;;;;;4.93;4.83;;;;;;;1.54;73.18;101637.91;5116265;28;20189;-69
2022/04/03 00:23:03;;;;;;;5.57;5.47;;;;;;;1.48;73.36;101649.88;5116409;28;20247;-69
2022/04/03 00:25:30;;;;;;;5.10;5.00;;;;;;;1.41;73.62;101643.78;5116670;28;20327;-69
2022/04/03 00:27:56;;;;;;;11.23;5.37;;;;;;;1.35;73.64;101639.44;5116136;28;20239;-69
2022/04/03 00:30:23;;;;;;;5.83;5.73;;;;;;;1.31;73.79;101641.97;5116161;28;20306;-69
2022/04/03 00:32:49;;;;;;;5.70;5.50;;;;;;;1.27;73.93;101646.22;5116324;28;20189;-69
2022/04/03 00:35:16;;;;;;;5.13;5.07;;;;;;;1.16;74.09;101645.25;5115960;28;20197;-69
2022/04/03 00:37:43;;;;;;;5.07;4.80;;;;;;;1.11;74.35;101646.88;5115938;28;20181;-69
2022/04/03 00:40:10;;;;;;;5.70;5.50;;;;;;;1.09;74.45;101646.88;5115828;28;20173;-69
2022/04/03 00:42:37;;;;;;;5.53;5.33;;;;;;;1.05;74.53;101639.06;5116113;28;20190;-69
2022/04/03 00:45:05;;;;;;;5.43;4.93;;;;;;;1.02;74.73;101644.19;5115784;28;20234;-69
2022/04/03 00:47:32;;;;;;;4.67;4.57;;;;;;;0.97;74.77;101640.69;5115786;28;20193;-69
2022/04/03 00:49:59;;;;;;;4.70;4.70;;;;;;;0.92;74.88;101644.91;5115683;28;20181;-69
2022/04/03 00:52:26;;;;;;;5.57;5.43;;;;;;;0.98;75.07;101647.56;5115641;28;20181;-69
2022/04/03 00:54:53;;;;;;;5.57;5.37;;;;;;;0.91;75.17;101648.34;5115858;28;20254;-69
2022/04/03 00:57:22;;;;;;;5.23;4.97;;;;;;;0.83;75.25;101640.50;5115860;28;20229;-69
2022/04/03 00:59:49;;;;;;;6.03;5.67;;;;;;;0.75;75.77;101640.41;5115503;28;20185;-69
2022/04/03 01:02:16;;;;;;;5.10;5.10;;;;;;;0.76;75.71;101639.56;5115903;28;20694;-69
2022/04/03 01:04:43;;;;;;;5.63;5.43;;;;;;;0.73;75.55;101636.94;5116041;28;20232;-69
2022/04/03 01:07:15;;;;;;;6.13;5.77;;;;;;;0.74;75.52;101643.84;5115951;28;20179;-69
2022/04/03 01:09:42;;;;;;;6.13;5.97;;;;;;;0.66;75.50;101648.03;5115604;28;20199;-69
2022/04/03 01:12:08;;;;;;;5.83;5.70;;;;;;;0.67;75.61;101642.00;5115281;28;20211;-69
2022/04/03 01:14:39;;;;;;;5.43;5.23;;;;;;;0.54;76.04;101638.38;5115139;28;20257;-69
2022/04/03 01:17:07;;;;;;;5.63;5.47;;;;;;;0.54;75.88;101645.25;5115232;28;20221;-69
2022/04/03 01:19:34;;;;;;;8.93;5.37;;;;;;;0.54;75.80;101640.09;5115148;28;20232;-69
2022/04/03 01:22:00;;;;;;;5.43;5.13;;;;;;;0.50;75.96;101644.34;5115031;28;20193;-68
2022/04/03 01:24:27;;;;;;;5.47;5.37;;;;;;;0.44;76.01;101641.69;5115155;28;20263;-68
2022/04/03 01:26:53;;;;;;;10.70;5.43;;;;;;;0.44;75.99;101638.25;5114963;28;20249;-68
2022/04/03 01:29:20;;;;;;;4.67;4.53;;;;;;;0.38;75.98;101643.31;5115516;28;20614;-68
2022/04/03 01:31:47;;;;;;;5.30;5.20;;;;;;;0.28;76.29;101653.44;5115446;28;20179;-68
2022/04/03 01:34:15;;;;;;;5.17;4.90;;;;;;;0.31;76.22;101641.47;5115179;28;20208;-68
2022/04/03 01:36:41;;;;;;;5.53;5.43;;;;;;;0.25;76.43;101645.69;5114791;28;20233;-68
2022/04/03 01:39:10;;;;;;;10.13;5.43;;;;;;;0.24;76.41;101648.25;5115015;28;20241;-68
2022/04/03 01:41:42;;;;;;;6.33;6.00;;;;;;;0.20;76.52;101642.16;5114884;28;20232;-68
2022/04/03 01:44:10;;;;;;;5.40;5.20;;;;;;;0.15;76.65;101645.53;5114557;28;20208;-68
2022/04/03 01:46:37;;;;;;;5.80;5.60;;;;;;;0.12;76.59;101636.03;5114791;28;20206;-68
2022/04/03 01:49:05;;;;;;;5.80;5.70;;;;;;;0.07;76.70;101642.78;5114764;28;20196;-68
2022/04/03 01:51:33;;;;;;;6.43;6.20;;;;;;;0.04;76.96;101640.19;5114024;28;20251;-68
2022/04/03 01:54:00;;;;;;;6.37;5.97;;;;;;;0.03;76.77;101640.16;5114683;28;20543;-68
2022/04/03 01:56:27;;;;;;;5.43;5.33;;;;;;;-0.04;76.96;101636.63;5114444;28;20252;-68
2022/04/03 01:58:53;;;;;;;5.63;5.30;;;;;;;-0.11;77.02;101639.94;5114664;28;20601;-68
2022/04/03 02:01:20;;;;;;;5.17;5.07;;;;;;;-0.12;77.42;101644.22;5114392;28;20187;-68
2022/04/03 02:03:47;;;;;;;6.57;6.43;;;;;;;-0.18;77.65;101636.38;5114139;28;20226;-68
2022/04/03 02:06:15;;;;;;;5.57;5.47;;;;;;;-0.20;77.73;101639.78;5114210;28;20184;-69
2022/04/03 02:08:43;;;;;;;5.43;5.33;;;;;;;-0.30;77.79;101647.31;5114580;28;20232;-69
2022/04/03 02:11:09;;;;;;;5.73;5.47;;;;;;;-0.24;77.72;101638.84;5114181;28;20239;-69
2022/04/03 02:13:36;;;;;;;6.13;5.70;;;;;;;-0.28;77.97;101645.66;5114887;28;20619;-69
2022/04/03 02:16:03;;;;;;;5.73;5.53;;;;;;;-0.29;77.93;101649.06;5114116;28;20245;-69
2022/04/03 02:18:30;;;;;;;5.13;5.03;;;;;;;-0.34;78.27;101649.81;5114064;28;20184;-69
2022/04/03 02:20:56;;;;;;;6.53;6.33;;;;;;;-0.29;78.23;101646.50;5114021;28;20590;-69
2022/04/03 02:23:23;;;;;;;5.93;5.63;;;;;;;-0.37;78.29;101650.59;5113863;28;20745;-69
2022/04/03 02:25:50;;;;;;;5.90;5.73;;;;;;;-0.35;77.70;101643.81;5113876;28;20237;-69
2022/04/03 02:28:17;;;;;;;5.77;5.67;;;;;;;-0.37;77.46;101648.03;5114557;28;20179;-69
2022/04/03 02:30:44;;;;;;;5.90;5.60;;;;;;;-0.40;77.49;101650.56;5113909;28;20254;-69
2022/04/03 02:33:11;;;;;;;6.13;5.93;;;;;;;-0.44;77.48;101651.34;5113815;28;20186;-69
2022/04/03 02:35:37;;;;;;;5.27;5.17;;;;;;;-0.45;77.68;101651.31;5113798;28;20257;-69
2022/04/03 02:38:04;;;;;;;5.07;4.97;;;;;;;-0.45;77.74;101649.59;5113847;28;20608;-69
2022/04/03 02:40:31;;;;;;;6.60;6.20;;;;;;;-0.57;78.43;101647.69;5113781;28;20682;-69
2022/04/03 02:42:58;;;;;;;5.83;5.53;;;;;;;-0.60;78.89;101651.91;5113960;28;20674;-69
2022/04/03 02:45:24;;;;;;;5.60;5.50;;;;;;;-0.64;79.16;101655.25;5113676;28;20763;-69
2022/04/03 02:47:54;;;;;;;5.60;5.50;;;;;;;-0.67;79.54;101653.47;5113779;28;20516;-69
2022/04/03 02:50:23;;;;;;;5.07;4.87;;;;;;;-0.74;79.99;101655.91;5113698;28;20193;-69
2022/04/03 02:52:51;;;;;;;5.27;5.13;;;;;;;-0.81;80.09;101656.59;5113667;28;20188;-69
2022/04/03 02:55:19;;;;;;;6.37;5.87;;;;;;;-0.80;80.42;101655.78;5113435;28;20240;-69
2022/04/03 02:57:46;;;;;;;5.80;5.70;;;;;;;-0.88;80.67;101653.91;5114244;28;20170;-69
2022/04/03 03:00:17;;;;;;;6.30;6.13;;;;;;;-0.95;80.90;101653.75;5113843;28;20639;-69
2022/04/03 03:02:45;;;;;;;6.23;6.03;;;;;;;-1.02;81.39;101651.88;5114399;28;20209;-69
2022/04/03 03:05:14;;;;;;;6.00;5.90;;;;;;;-1.05;81.24;101647.56;5118022;28;20261;-69
2022/04/03 03:07:45;;;;;;;4.90;4.83;;;;;;;-1.07;81.48;101659.53;5117751;28;20197;-69
2022/04/03 03:10:19;;;;;;;5.27;5.13;;;;;;;-1.14;81.57;101653.38;5117770;28;20251;-69
2022/04/03 03:12:46;;;;;;;6.00;5.80;;;;;;;-1.16;81.76;101646.47;5117928;28;20580;-69
2022/04/03 03:15:13;;;;;;;6.67;6.43;;;;;;;-1.17;81.69;101658.44;5117576;28;20686;-69
2022/04/03 03:17:40;;;;;;;6.27;6.07;;;;;;;-1.26;82.00;101657.38;5117502;28;20234;-69
2022/04/03 03:20:10;;;;;;;6.47;5.97;;;;;;;-1.31;82.14;101661.53;5117494;28;20734;-69
2022/04/03 03:22:39;;;;;;;5.67;5.50;;;;;;;-1.34;82.46;101658.91;5117346;28;20212;-69
2022/04/03 03:25:07;;;;;;;7.30;6.90;;;;;;;-1.40;82.53;101652.81;5117633;28;20250;-69
2022/04/03 03:27:38;;;;;;;5.93;5.73;;;;;;;-1.43;82.52;101655.31;5117366;28;20719;-69
2022/04/03 03:30:07;;;;;;;6.53;6.17;;;;;;;-1.43;82.79;101654.41;5117287;28;20193;-69
2022/04/03 03:32:35;;;;;;;6.83;6.23;;;;;;;-1.51;82.93;101655.94;5117276;28;20185;-69
2022/04/03 03:35:01;;;;;;;6.87;6.67;;;;;;;-1.56;83.30;101658.44;5117180;28;20285;-69
2022/04/03 03:37:28;;;;;;;7.77;7.10;;;;;;;-1.58;83.52;101660.06;5117734;28;20227;-69
2022/04/03 03:39:54;;;;;;;7.43;7.10;;;;;;;-1.62;83.54;101663.41;5117118;28;20463;-69
2022/04/03 03:42:21;;;;;;;12.13;10.90;;;;;;;-1.66;83.92;101666.72;5116995;28;20208;-69
2022/04/03 03:44:47;;;;;;;8.27;7.97;;;;;;;-1.68;83.96;101668.41;5117109;28;20759;-69
2022/04/03 03:47:13;;;;;;;6.77;6.57;;;;;;;-1.71;84.03;101666.63;5116971;28;20185;-69
2022/04/03 03:49:40;;;;;;;7.67;7.37;;;;;;;-1.81;84.80;101666.38;5117222;28;20426;-69
2022/04/03 03:52:07;;;;;;;7.70;7.40;;;;;;;-1.81;84.50;101672.34;5116912;28;20528;-69
2022/04/03 03:54:33;;;;;;;9.07;8.33;;;;;;;-1.83;85.10;101675.72;5116756;28;20506;-69
2022/04/03 03:56:59;;;;;;;7.70;7.03;;;;;;;-1.84;85.27;101672.31;5115824;28;20647;-69
2022/04/03 03:59:26;;;;;;;9.73;9.07;;;;;;;-1.79;85.21;101673.25;5115547;28;20429;-69
2022/04/03 04:01:53;;;;;;;7.23;6.83;;;;;;;-1.83;85.02;101674.03;5115506;28;20197;-69
2022/04/03 04:04:20;;;;;;;5.60;5.40;;;;;;;-1.92;85.20;101675.50;5115584;28;20224;-69
2022/04/03 04:06:48;;;;;;;6.70;6.10;;;;;;;-1.98;85.68;101681.34;5115381;28;20433;-69
2022/04/03 04:09:14;;;;;;;6.70;6.27;;;;;;;-2.05;85.56;101682.03;5115372;28;20236;-69
2022/04/03 04:11:41;;;;;;;5.33;5.13;;;;;;;-2.13;85.69;101684.41;5115602;28;20429;-69
2022/04/03 04:14:07;;;;;;;10.47;5.97;;;;;;;-2.17;85.96;101687.69;5114791;28;20506;-69
2022/04/03 04:16:34;;;;;;;6.37;5.80;;;;;;;-2.15;86.02;101685.16;5115254;28;20947;-69
2022/04/03 04:19:06;;;;;;;6.13;5.93;;;;;;;-2.20;86.15;101699.59;5115522;28;20817;-69
2022/04/03 04:21:32;;;;;;;6.50;5.97;;;;;;;-2.22;86.37;101695.25;5115158;28;20437;-68
2022/04/03 04:23:59;;;;;;;6.73;6.23;;;;;;;-2.27;86.43;101691.72;5115240;28;20465;-68
2022/04/03 04:26:25;;;;;;;6.70;6.30;;;;;;;-2.30;86.53;101694.19;5115385;28;20429;-68
2022/04/03 04:28:52;;;;;;;6.80;6.57;;;;;;;-2.39;86.55;101695.66;5115081;28;20185;-68
2022/04/03 04:31:19;;;;;;;6.87;6.67;;;;;;;-2.42;86.96;101696.44;5115294;28;20429;-68
2022/04/03 04:33:45;;;;;;;7.13;6.73;;;;;;;-2.43;87.17;101688.69;5114897;28;20429;-68
2022/04/03 04:36:12;;;;;;;6.90;6.43;;;;;;;-2.39;87.33;101693.94;5115497;28;20537;-68
2022/04/03 04:38:38;;;;;;;6.03;5.93;;;;;;;-2.42;87.63;101691.31;5115173;28;20426;-68
2022/04/03 04:41:05;;;;;;;7.10;6.80;;;;;;;-2.41;87.75;101692.19;5114855;28;20459;-68
2022/04/03 04:43:31;;;;;;;6.50;6.30;;;;;;;-2.32;87.62;101697.56;5114660;28;20457;-68
2022/04/03 04:45:57;;;;;;;6.20;6.00;;;;;;;-2.32;87.56;101702.69;5115037;28;20459;-68
2022/04/03 04:48:24;;;;;;;6.90;6.30;;;;;;;-2.37;87.88;101704.25;5114794;28;20922;-68
2022/04/03 04:50:51;;;;;;;6.37;5.87;;;;;;;-2.34;87.56;101704.34;5114997;28;20430;-68
2022/04/03 04:53:21;;;;;;;7.70;7.40;;;;;;;-2.38;87.63;101713.63;5114989;28;20406;-68
2022/04/03 04:55:47;;;;;;;8.57;7.80;;;;;;;-2.38;87.41;101718.75;5115115;28;20452;-68
2022/04/03 04:58:14;;;;;;;6.97;6.67;;;;;;;-2.42;87.44;101722.09;5115930;28;20455;-68
2022/04/03 05:00:41;;;;;;;7.90;7.50;;;;;;;-2.55;87.32;101723.44;5115578;28;20422;-68
2022/04/03 05:03:08;;;;;;;8.80;8.10;;;;;;;-2.66;87.70;101724.81;5115461;28;20563;-68
2022/04/03 05:05:35;;;;;;;7.20;6.70;;;;;;;-2.73;88.15;101722.88;5115388;28;20500;-68
2022/04/03 05:08:02;;;;;;;7.50;7.20;;;;;;;-2.74;88.26;101725.41;5115700;28;20494;-68
2022/04/03 05:10:30;;;;;;;7.80;7.00;;;;;;;-2.71;88.94;101735.78;5115672;28;20821;-68
2022/04/03 05:12:57;;;;;;;8.87;7.53;;;;;;;-2.76;89.13;101730.50;5115315;28;20418;-68
2022/04/03 05:15:24;;;;;;;8.27;7.67;;;;;;;-2.77;89.48;101728.78;5115440;28;20954;-68
2022/04/03 05:17:50;;;;;;;7.80;7.37;;;;;;;-2.80;89.81;101726.09;5115486;28;20433;-68
2022/04/03 05:20:17;;;;;;;8.27;7.70;;;;;;;-2.74;89.74;101738.22;5115296;28;20428;-68
2022/04/03 05:22:44;;;;;;;7.90;7.60;;;;;;;-2.82;90.75;101733.75;5115338;28;20453;-68
2022/04/03 05:25:11;;;;;;;8.30;7.90;;;;;;;-2.76;90.51;101738.19;5114647;28;20959;-68
2022/04/03 05:27:42;;;;;;;8.13;7.57;;;;;;;-2.72;90.47;101742.56;5114898;28;20422;-68
2022/04/03 05:30:09;;;;;;;7.57;7.20;;;;;;;-2.69;90.72;101734.97;5115350;28;20406;-68
2022/04/03 05:32:36;;;;;;;8.00;7.43;;;;;;;-2.63;90.67;101732.59;5114929;28;20429;-68
2022/04/03 05:35:04;;;;;;;8.00;7.53;;;;;;;-2.54;90.78;101737.97;5114799;28;21091;-68
2022/04/03 05:37:32;;;;;;;8.07;7.40;;;;;;;-2.58;90.99;101730.16;5115073;28;20433;-68
2022/04/03 05:39:58;;;;;;;8.70;7.93;;;;;;;-2.54;91.19;101722.59;5115011;28;20494;-68
2022/04/03 05:42:25;;;;;;;8.80;8.10;;;;;;;-2.48;91.15;101736.44;5114650;28;20988;-68
2022/04/03 05:44:51;;;;;;;8.00;7.23;;;;;;;-2.48;91.19;101733.88;5114922;28;20445;-68
2022/04/03 05:47:17;;;;;;;8.67;7.97;;;;;;;-2.47;91.16;101743.28;5114636;28;20458;-68
2022/04/03 05:49:45;;;;;;;9.27;7.87;;;;;;;-2.50;90.83;101744.94;5114582;28;20429;-68
2022/04/03 05:52:11;;;;;;;9.00;8.40;;;;;;;-2.46;90.33;101747.59;5114917;28;20486;-68
2022/04/03 05:54:38;;;;;;;8.60;8.07;;;;;;;-2.48;90.19;101752.69;5114420;28;21010;-68
2022/04/03 05:57:05;;;;;;;9.20;8.33;;;;;;;-2.39;90.06;101749.50;5114370;28;20841;-68
2022/04/03 05:59:32;;;;;;;10.73;9.27;;;;;;;-2.25;89.48;101756.75;5114469;28;20429;-68
2022/04/03 06:02:05;;;;;;;8.53;8.03;;;;;;;-2.23;88.95;101749.94;5097588;28;20437;-68
2022/04/03 06:04:33;;;;;;;9.33;8.83;;;;;;;-2.16;88.76;101750.13;5114510;28;20465;-68
2022/04/03 06:06:59;;;;;;;9.27;8.57;;;;;;;-2.11;88.64;101754.56;5114260;28;20438;-68
2022/04/03 06:09:26;;;;;;;10.47;9.57;;;;;;;-2.08;88.17;101754.63;5114780;28;20462;-68
2022/04/03 06:11:53;;;;;;;11.50;10.43;;;;;;;-2.00;87.91;101755.72;5114450;28;20526;-68
2022/04/03 06:14:19;;;;;;;11.60;10.63;;;;;;;-1.97;87.75;101765.19;5114383;28;20442;-69
2022/04/03 06:16:46;;;;;;;13.47;11.43;;;;;;;-1.87;87.40;101753.47;5114086;28;20426;-69
2022/04/03 06:19:12;;;;;;;11.93;10.87;;;;;;;-1.77;87.11;101765.72;5114904;28;20439;-69
2022/04/03 06:21:39;;;;;;;14.87;11.63;;;;;;;-1.68;86.80;101766.81;5114316;28;20561;-69
2022/04/03 06:24:05;;;;;;;14.47;12.23;;;;;;;-1.57;86.36;101766.22;5114123;28;20514;-69
2022/04/03 06:26:32;;;;;;;12.60;11.37;;;;;;;-1.55;86.52;101762.88;5113945;28;20428;-69
2022/04/03 06:28:59;;;;;;;14.27;12.40;;;;;;;-1.46;86.66;101757.94;5114442;28;20939;-69
2022/04/03 06:31:28;;;;;;;21.33;13.77;;;;;;;-1.35;86.63;101759.94;5095944;28;20433;-69
2022/04/03 06:33:54;;;;;;;18.33;12.90;;;;;;;-1.29;86.78;101760.03;5114061;28;20469;-69
2022/04/03 06:36:21;;;;;;;14.57;13.17;;;;;;;-1.16;85.59;101759.50;5114107;28;20494;-69
2022/04/03 06:38:47;;;;;;;15.27;13.77;;;;;;;-1.03;84.91;101763.22;5113662;28;20975;-69
2022/04/03 06:41:14;;;;;;;14.50;12.83;;;;;;;-1.00;84.35;101759.06;5114110;28;20474;-69
2022/04/03 06:43:40;;;;;;;15.73;13.57;;;;;;;-0.91;83.73;101755.81;5113609;28;20461;-69
2022/04/03 06:46:07;;;;;;;14.67;13.20;;;;;;;-0.83;83.77;101767.13;5114058;28;20313;-69
2022/04/03 06:48:33;;;;;;;17.77;13.67;;;;;;;-0.56;82.26;101764.28;5113898;28;20293;-69
2022/04/03 06:51:01;;;;;;;16.80;13.27;;;;;;;-0.53;81.84;101764.34;5129795;28;20540;-69
2022/04/03 06:53:28;;;;;;;16.57;12.03;;;;;;;-0.47;81.40;101766.19;5113902;28;20234;-69
2022/04/03 06:55:54;;;;;;;14.97;12.70;;;;;;;-0.31;81.07;101768.22;5113520;28;20254;-69
2022/04/03 06:58:21;;;;;;;11.97;10.87;;;;;;;-0.23;79.77;101771.81;5113621;28;20194;-69
2022/04/03 07:00:51;;;;;;;11.67;10.70;;;;;;;-0.22;80.20;101773.53;5113960;28;20166;-69
2022/04/03 07:03:18;;;;;;;13.33;11.47;;;;;;;-0.26;80.20;101768.31;5113753;28;20627;-69
2022/04/03 07:05:44;;;;;;;11.37;10.40;;;;;;;-0.05;80.39;101767.03;5113511;28;20216;-69
2022/04/03 07:08:10;;;;;;;11.37;10.10;;;;;;;-0.04;80.09;101762.75;5113868;28;20221;-69
2022/04/03 07:10:37;;;;;;;11.50;10.40;;;;;;;0.06;78.81;101766.34;5114070;28;20712;-69
2022/04/03 07:13:04;;;;;;;10.80;9.77;;;;;;;0.17;78.28;101765.72;5113469;28;20275;-69
2022/04/03 07:15:30;;;;;;;12.70;9.77;;;;;;;0.36;78.57;101769.50;5113400;28;20761;-69
2022/04/03 07:17:57;;;;;;;10.23;9.10;;;;;;;0.38;77.20;101767.81;5113715;28;20565;-69
2022/04/03 07:20:24;;;;;;;9.97;9.37;;;;;;;0.48;77.60;101772.25;5113709;28;20653;-69
2022/04/03 07:22:50;;;;;;;9.67;9.00;;;;;;;0.58;76.47;101763.00;5113430;28;20174;-69
2022/04/03 07:25:20;;;;;;;9.37;8.77;;;;;;;0.67;76.39;101770.88;5113378;28;20217;-69
2022/04/03 07:27:47;;;;;;;10.37;9.50;;;;;;;0.74;76.28;101767.53;5113117;28;20557;-69
2022/04/03 07:30:13;;;;;;;9.43;8.83;;;;;;;0.94;75.93;101767.00;5113397;28;20175;-69
2022/04/03 07:32:40;;;;;;;9.60;9.00;;;;;;;1.05;75.75;101766.28;5113605;28;20185;-69
2022/04/03 07:35:11;;;;;;;11.50;8.50;;;;;;;1.10;74.89;101769.81;5113472;28;20266;-69
2022/04/03 07:37:39;;;;;;;9.80;9.13;;;;;;;1.31;74.82;101771.81;5113478;28;20189;-69
2022/04/03 07:40:08;;;;;;;9.17;8.67;;;;;;;1.41;73.70;101771.94;5129158;28;20600;-69
2022/04/03 07:42:36;;;;;;;9.57;8.73;;;;;;;1.42;73.86;101773.66;5113244;28;20183;-69
2022/04/03 07:45:04;;;;;;;9.70;7.67;;;;;;;1.58;74.04;101780.78;5113097;28;20702;-69
2022/04/03 07:47:32;;;;;;;9.33;8.67;;;;;;;1.75;73.75;101775.81;5113173;28;20189;-69
2022/04/03 07:49:59;;;;;;;9.60;8.70;;;;;;;1.73;72.61;101770.63;5115692;28;20184;-69
2022/04/03 07:52:25;;;;;;;9.37;8.77;;;;;;;1.84;73.58;101784.53;5116882;28;20184;-70
2022/04/03 07:54:52;;;;;;;7.60;7.30;;;;;;;1.99;72.08;101781.25;5116684;28;20205;-69
2022/04/03 07:57:19;;;;;;;8.90;8.20;;;;;;;2.01;72.12;101779.56;5117158;28;20177;-69
2022/04/03 07:59:46;;;;;;;7.77;7.37;;;;;;;2.25;71.48;101780.66;5117257;28;20217;-67
2022/04/03 08:02:13;;;;;;;8.03;7.73;;;;;;;2.45;71.07;101785.19;5116766;28;20173;-67
2022/04/03 08:04:39;;;;;;;7.30;6.87;;;;;;;2.54;69.25;101783.53;5116522;28;20231;-67
2022/04/03 08:07:06;;;;;;;6.47;6.00;;;;;;;2.65;68.62;101787.09;5116584;28;20192;-67
2022/04/03 08:09:32;;;;;;;6.23;5.87;;;;;;;2.75;68.23;101791.47;5116752;28;20588;-67
2022/04/03 08:11:59;;;;;;;6.00;5.83;;;;;;;2.86;68.30;101787.25;5116808;28;20177;-67
2022/04/03 08:14:27;;;;;;;6.10;5.80;;;;;;;2.92;67.48;101782.09;5116563;28;20547;-67
2022/04/03 08:16:55;;;;;;;13.07;5.77;;;;;;;3.04;67.17;101784.78;5116432;28;20193;-68
2022/04/03 08:19:22;;;;;;;3.70;3.70;;;;;;;3.20;66.11;101782.28;5116907;28;20192;-67
2022/04/03 08:21:48;;;;;;;4.53;4.43;;;;;;;3.25;65.31;101780.59;5116234;28;20178;-67
2022/04/03 08:24:15;;;;;;;5.07;4.97;;;;;;;3.38;66.67;101790.16;5116351;28;20224;-67
2022/04/03 08:26:42;;;;;;;4.57;4.27;;;;;;;3.45;64.71;101785.91;5116456;28;20199;-67
2022/04/03 08:29:08;;;;;;;4.17;4.07;;;;;;;3.41;63.62;101785.00;5116232;28;20185;-66
2022/04/03 08:31:35;;;;;;;3.87;3.77;;;;;;;3.51;63.17;101791.97;5116356;28;20231;-66
2022/04/03 08:34:01;;;;;;;4.63;4.30;;;;;;;3.41;65.19;101795.34;5098248;28;20291;-66
2022/04/03 08:36:28;;;;;;;4.30;3.87;;;;;;;3.44;65.23;101797.13;5116109;28;20181;-66
2022/04/03 08:38:56;;;;;;;4.00;4.00;;;;;;;3.42;62.88;101799.66;5116866;28;20224;-66
2022/04/03 08:41:22;;;;;;;3.13;3.13;;;;;;;3.25;62.48;101797.00;5116218;28;20546;-66
2022/04/03 08:43:49;;;;;;;3.97;3.83;;;;;;;3.18;64.14;101805.56;5115942;28;20217;-66
2022/04/03 08:46:16;;;;;;;4.17;3.97;;;;;;;3.17;64.23;101802.97;5116023;28;20589;-66
2022/04/03 08:48:47;;;;;;;3.60;3.50;;;;;;;3.21;64.83;101799.53;5115823;28;20592;-66
2022/04/03 08:51:14;;;;;;;5.73;4.10;;;;;;;3.20;64.32;101808.16;5116071;28;20189;-66
2022/04/03 08:53:44;;;;;;;3.70;3.60;;;;;;;3.24;64.40;101804.75;5116041;28;20581;-66
2022/04/03 08:56:11;;;;;;;4.03;3.87;;;;;;;3.07;62.74;101807.22;5116465;28;20219;-66
2022/04/03 08:58:37;;;;;;;4.33;4.33;;;;;;;2.95;63.72;101813.19;5115616;28;20232;-66
2022/04/03 09:01:04;;;;;;;4.50;4.40;;;;;;;2.99;63.17;101807.16;5114419;28;20192;-66
2022/04/03 09:03:31;;;;;;;3.83;3.73;;;;;;;2.89;64.13;101807.09;5115671;28;20182;-66
2022/04/03 09:06:16;;;;;;;4.00;3.87;;;;;;;2.88;64.45;101808.81;5115488;28;20242;-66
2022/04/03 09:08:44;;;;;;;3.80;3.60;;;;;;;2.90;64.50;101808.81;5115776;28;20540;-66
2022/04/03 09:11:11;;;;;;;3.90;3.90;;;;;;;2.88;65.56;101819.16;5115320;28;20218;-66
2022/04/03 09:13:39;;;;;;;4.37;3.97;;;;;;;2.82;64.01;101813.94;5115146;28;20185;-66
2022/04/03 09:16:07;;;;;;;4.07;4.03;;;;;;;2.89;63.47;101815.72;5115104;28;20185;-66
2022/04/03 09:18:51;;;;;;;4.30;4.20;;;;;;;2.86;64.95;101820.88;5115669;28;20189;-66
2022/04/03 09:21:27;;;;;;;3.80;3.70;;;;;;;2.82;63.80;101818.25;5115306;28;20177;-66
2022/04/03 09:24:02;;;;;;;4.10;4.00;;;;;;;2.78;64.34;101814.75;5115164;28;20619;-66
2022/04/03 09:26:30;;;;;;;3.30;3.30;;;;;;;2.78;64.21;101817.34;5114983;28;20177;-66
2022/04/03 09:29:17;;;;;;;4.40;4.20;;;;;;;2.85;65.40;101816.53;5114848;28;20210;-66
2022/04/03 09:31:47;;;;;;;4.60;4.60;;;;;;;2.82;64.45;101810.47;5115160;28;20170;-66
2022/04/03 09:34:16;;;;;;;4.03;4.03;;;;;;;2.77;65.32;101818.19;5114943;28;20570;-66
2022/04/03 09:36:42;;;;;;;3.50;3.50;;;;;;;2.80;64.90;101807.88;5114904;28;20189;-66
2022/04/03 09:39:12;;;;;;;3.70;3.70;;;;;;;2.85;66.29;101806.19;5114893;28;20700;-66
2022/04/03 09:42:02;;;;;;;3.47;3.47;;;;;;;2.84;65.53;101812.22;5114794;28;20547;-67
2022/04/03 09:44:35;;;;;;;3.40;3.40;;;;;;;2.85;67.08;101803.59;5114598;28;20243;-66
2022/04/03 09:47:22;;;;;;;3.83;3.73;;;;;;;2.96;67.30;101809.72;5114587;28;20169;-66
2022/04/03 09:49:52;;;;;;;3.77;3.33;;;;;;;3.06;66.90;101804.63;5114794;28;20177;-66
2022/04/03 09:52:40;;;;;;;4.13;4.13;;;;;;;3.07;66.76;101799.44;5114370;28;20258;-66
2022/04/03 09:55:12;;;;;;;5.30;3.87;;;;;;;3.07;67.11;101796.00;5114130;28;20212;-66
2022/04/03 09:57:46;;;;;;;4.63;4.63;;;;;;;3.08;67.82;101805.53;5114589;28;20712;-66
2022/04/03 10:00:38;;;;;;;4.90;4.03;;;;;;;3.15;68.18;101804.69;5114058;28;20268;-66
2022/04/03 10:03:04;;;;;;;4.10;4.10;;;;;;;3.29;67.33;101798.75;5114612;28;20223;-66
2022/04/03 10:05:33;;;;;;;3.63;3.60;;;;;;;3.48;68.43;101785.91;5114013;28;20266;-66
2022/04/03 10:08:01;;;;;;;3.63;3.43;;;;;;;3.44;69.48;101790.22;5114384;28;20234;-66
2022/04/03 10:10:30;;;;;;;3.77;3.53;;;;;;;3.53;69.35;101790.25;5114610;28;20189;-66
2022/04/03 10:12:58;;;;;;;2.90;2.80;;;;;;;3.91;70.80;101781.75;5113925;28;20254;-66
2022/04/03 10:15:26;;;;;;;3.67;3.57;;;;;;;4.28;71.35;101789.63;5114141;28;20250;-67
2022/04/03 10:17:53;;;;;;;4.90;4.20;;;;;;;4.68;70.25;101777.56;5113866;28;20181;-67
2022/04/03 10:20:24;;;;;;;4.83;4.43;;;;;;;4.73;67.23;101777.59;5113778;28;20244;-67
2022/04/03 10:22:55;;;;;;;3.50;3.40;;;;;;;4.48;66.05;101780.16;5113805;28;20183;-67
2022/04/03 10:25:31;;;;;;;4.80;4.80;;;;;;;4.79;65.96;101777.59;5113777;28;20608;-67
2022/04/03 10:28:01;;;;;;;3.60;3.40;;;;;;;5.19;69.48;101768.00;5114363;28;20232;-67
2022/04/03 10:30:42;;;;;;;4.33;4.23;;;;;;;5.46;64.77;101769.66;5114001;28;20639;-67
2022/04/03 10:33:19;;;;;;;3.50;3.50;;;;;;;5.53;63.42;101767.03;5114042;28;20180;-67
2022/04/03 10:35:48;;;;;;;4.50;4.23;;;;;;;5.69;63.92;101759.19;5113672;28;20231;-67
2022/04/03 10:38:15;;;;;;;3.87;3.83;;;;;;;5.82;65.37;101757.41;5113886;28;20245;-67
2022/04/03 10:40:56;;;;;;;3.57;3.47;;;;;;;5.91;67.78;101759.97;5113561;28;20189;-67
2022/04/03 10:43:29;;;;;;;5.27;4.10;;;;;;;5.75;64.25;101754.81;5113849;28;20230;-67
2022/04/03 10:45:57;;;;;;;3.73;3.63;;;;;;;6.27;64.20;101749.34;5113716;28;20218;-67
2022/04/03 10:48:25;;;;;;;3.90;3.80;;;;;;;6.51;63.85;101737.06;5113458;28;20245;-67
2022/04/03 10:51:11;;;;;;;4.33;3.80;;;;;;;6.63;63.59;101743.00;5113483;28;20185;-67
2022/04/03 10:53:47;;;;;;;2.90;2.83;;;;;;;7.05;64.12;101735.66;5113958;28;20177;-68
2022/04/03 10:56:25;;;;;;;3.20;3.20;;;;;;;7.02;61.76;101729.63;5113624;28;20226;-68
2022/04/03 10:58:54;;;;;;;3.50;3.20;;;;;;;7.03;59.92;101721.81;5113501;28;20181;-68
2022/04/03 11:01:32;;;;;;;3.63;3.33;;;;;;;6.87;61.25;101721.09;5113640;28;20189;-68
2022/04/03 11:04:09;;;;;;;3.97;3.87;;;;;;;7.13;65.04;101726.00;5113225;28;20212;-68
2022/04/03 11:06:39;;;;;;;6.07;4.00;;;;;;;7.15;63.93;101719.06;5113566;28;20217;-67
2022/04/03 11:09:20;;;;;;;3.37;3.23;;;;;;;7.09;63.92;101716.53;5113609;28;20629;-67
2022/04/03 11:11:55;;;;;;;3.33;3.23;;;;;;;6.52;62.20;101718.81;5113642;28;20668;-67
2022/04/03 11:14:58;;;;;;;4.70;3.63;;;;;;;6.22;64.01;101724.25;5113522;28;20223;-67
2022/04/03 11:17:53;;;;;;;3.60;3.40;;;;;;;6.19;63.01;101714.72;5113285;28;20193;-67
2022/04/03 11:20:33;;;;;;;3.37;3.37;;;;;;;6.50;64.23;101714.47;5113774;28;20238;-67
2022/04/03 11:23:01;;;;;;;3.20;3.20;;;;;;;6.86;63.19;101701.16;5113785;28;20634;-67
2022/04/03 11:25:28;;;;;;;3.00;2.80;;;;;;;7.02;62.01;101701.00;5116544;28;20551;-67
2022/04/03 11:27:55;;;;;;;3.40;3.30;;;;;;;7.08;60.38;101696.59;5117135;28;20212;-67
2022/04/03 11:30:21;;;;;;;3.73;3.60;;;;;;;6.84;61.34;101691.63;5117124;28;20177;-67
2022/04/03 11:32:50;;;;;;;4.27;4.17;;;;;;;6.73;61.41;101689.13;5117718;28;20521;-67